Time;durP1;ratioP1;P1;durP2;ratioP2;P2;SDS_P1;SDS_P2;PMS_P1;PMS_P2;Temp;Humidity;BMP_temperature;BMP_pressure;BME280_temperature;BME280_humidity;BME280_pressure;Samples;Min_cycle;Max_cycle;Signal;HPM_P1;HPM_P2
2022/07/15 00:00:43;;;;;;;4.65;4.35;;;;;;;-141.48;100.00;69781.59;4968009;29;20484;-62
2022/07/15 00:03:13;;;;;;;7.07;6.43;;;;;;;-141.48;100.00;69781.59;4967886;29;20033;-61
2022/07/15 00:05:45;;;;;;;4.47;4.28;;;;;;;-141.48;100.00;69781.59;4968635;29;20033;-61
2022/07/15 00:08:15;;;;;;;14.05;5.55;;;;;;;-141.48;100.00;69781.59;4954537;29;20034;-61
2022/07/15 00:10:46;;;;;;;6.70;6.40;;;;;;;-141.48;100.00;69781.59;4970780;29;20057;-62
2022/07/15 00:13:16;;;;;;;6.13;5.63;;;;;;;-141.48;100.00;69781.59;4970422;29;20031;-62
2022/07/15 00:15:46;;;;;;;9.20;6.15;;;;;;;-141.48;100.00;69781.59;4969920;29;20023;-62
2022/07/15 00:18:17;;;;;;;5.15;4.85;;;;;;;-141.48;100.00;69781.59;4970655;29;20027;-62
2022/07/15 00:20:47;;;;;;;8.30;5.28;;;;;;;-141.48;100.00;69781.59;4954703;29;20042;-62
2022/07/15 00:23:18;;;;;;;6.13;5.82;;;;;;;-141.48;100.00;69781.59;4954152;29;20079;-62
2022/07/15 00:25:48;;;;;;;9.23;5.50;;;;;;;-141.48;100.00;69781.59;4970156;29;20506;-62
2022/07/15 00:28:18;;;;;;;6.20;5.63;;;;;;;-141.48;100.00;69781.59;4970141;29;20043;-62
2022/07/15 00:30:49;;;;;;;10.80;6.20;;;;;;;-141.48;100.00;69781.59;4970307;29;20027;-63
2022/07/15 00:33:19;;;;;;;11.68;7.25;;;;;;;-141.48;100.00;69781.59;4969892;29;20092;-64
2022/07/15 00:35:50;;;;;;;6.85;6.20;;;;;;;-141.48;100.00;69781.59;4969655;29;20057;-63
2022/07/15 00:38:20;;;;;;;5.78;5.43;;;;;;;-141.48;100.00;69781.59;4953557;29;20027;-62
2022/07/15 00:40:51;;;;;;;7.05;6.10;;;;;;;-141.48;100.00;69781.59;4970002;29;20115;-62
2022/07/15 00:43:21;;;;;;;12.07;7.13;;;;;;;-141.48;100.00;69781.59;4969626;29;20406;-63
2022/07/15 00:45:52;;;;;;;12.23;5.95;;;;;;;-141.48;100.00;69781.59;4969905;29;20110;-63
2022/07/15 00:48:23;;;;;;;7.18;6.50;;;;;;;-141.48;100.00;69781.59;4969742;29;20027;-63
2022/07/15 00:50:53;;;;;;;5.82;5.47;;;;;;;-141.48;100.00;69781.59;4969842;29;20107;-62
2022/07/15 00:53:28;;;;;;;5.22;4.82;;;;;;;-141.48;100.00;69781.59;4969501;29;20058;-63
2022/07/15 00:56:01;;;;;;;8.90;5.85;;;;;;;-141.48;100.00;69781.59;4969742;29;20039;-63
2022/07/15 00:58:34;;;;;;;5.40;4.90;;;;;;;-141.48;100.00;69781.59;4969683;29;20042;-63
2022/07/15 01:01:07;;;;;;;7.95;7.32;;;;;;;-141.48;100.00;69781.59;4969796;29;20155;-63
2022/07/15 01:03:39;;;;;;;7.18;5.97;;;;;;;-141.48;100.00;69781.59;4969130;29;20559;-63
2022/07/15 01:06:09;;;;;;;7.93;5.20;;;;;;;-141.48;100.00;69781.59;4969654;29;20037;-62
2022/07/15 01:08:40;;;;;;;14.68;7.60;;;;;;;-141.48;100.00;69781.59;4969533;29;20477;-63
2022/07/15 01:11:11;;;;;;;7.57;6.82;;;;;;;-141.48;100.00;69781.59;4953263;29;20035;-66
2022/07/15 01:13:41;;;;;;;5.88;5.32;;;;;;;-141.48;100.00;69781.59;4969027;29;20054;-63
2022/07/15 01:16:12;;;;;;;10.75;6.20;;;;;;;-141.48;100.00;69781.59;4969341;29;20033;-63
2022/07/15 01:18:42;;;;;;;12.15;6.05;;;;;;;-141.48;100.00;69781.59;4968690;29;20179;-63
2022/07/15 01:21:12;;;;;;;8.15;5.32;;;;;;;-141.48;100.00;69781.59;4969687;29;20037;-63
2022/07/15 01:23:43;;;;;;;7.07;6.40;;;;;;;-141.48;100.00;69781.59;4969357;29;20030;-63
2022/07/15 01:26:14;;;;;;;7.00;6.25;;;;;;;-141.48;100.00;69781.59;4969441;29;20046;-63
2022/07/15 01:28:44;;;;;;;6.97;6.40;;;;;;;-141.48;100.00;69781.59;4969320;29;20201;-63
2022/07/15 01:31:15;;;;;;;4.47;4.28;;;;;;;-141.48;100.00;69781.59;4969205;29;20031;-63
2022/07/15 01:33:45;;;;;;;7.57;5.95;;;;;;;-141.48;100.00;69781.59;4968520;29;20037;-63
2022/07/15 01:36:16;;;;;;;6.80;5.82;;;;;;;-141.48;100.00;69781.59;4968913;29;20118;-63
2022/07/15 01:38:46;;;;;;;5.55;5.15;;;;;;;-141.48;100.00;69781.59;4968687;29;20031;-63
2022/07/15 01:41:18;;;;;;;7.85;6.65;;;;;;;-141.48;100.00;69781.59;4968397;29;20401;-63
2022/07/15 01:43:48;;;;;;;7.13;6.10;;;;;;;-141.48;100.00;69781.59;4968347;29;20084;-63
2022/07/15 01:46:18;;;;;;;7.70;6.32;;;;;;;-141.48;100.00;69781.59;4968650;29;20110;-63
2022/07/15 01:51:38;;;;;;;5.88;5.35;;;;;;;-141.48;100.00;69781.59;4968582;29;20039;-63
2022/07/15 01:54:08;;;;;;;6.13;5.72;;;;;;;-141.48;100.00;69781.59;4968363;29;20031;-63
2022/07/15 01:56:39;;;;;;;6.55;6.15;;;;;;;-141.48;100.00;69781.59;4968584;29;20450;-63
2022/07/15 01:59:09;;;;;;;5.80;5.30;;;;;;;-141.48;100.00;69781.59;4968865;29;20015;-63
2022/07/15 02:01:40;;;;;;;6.80;6.13;;;;;;;-141.48;100.00;69781.59;4969125;29;20035;-63
2022/07/15 02:04:12;;;;;;;6.38;5.65;;;;;;;-141.48;100.00;69781.59;4952425;29;20041;-63
2022/07/15 02:06:43;;;;;;;5.35;5.03;;;;;;;-141.48;100.00;69781.59;4968500;29;20076;-63
2022/07/15 02:09:14;;;;;;;6.93;5.75;;;;;;;-141.48;100.00;69781.59;4968385;29;20031;-63
2022/07/15 02:11:45;;;;;;;11.13;5.55;;;;;;;-141.48;100.00;69781.59;4968446;29;20035;-63
2022/07/15 02:14:15;;;;;;;5.45;4.30;;;;;;;-141.48;100.00;69781.59;4968273;29;20080;-63
2022/07/15 02:16:46;;;;;;;5.22;4.80;;;;;;;-141.48;100.00;69781.59;4968317;29;20031;-63
2022/07/15 02:19:16;;;;;;;6.57;5.90;;;;;;;-141.48;100.00;69781.59;4968369;29;20105;-63
2022/07/15 02:21:47;;;;;;;9.88;6.30;;;;;;;-141.48;100.00;69781.59;4968231;29;20110;-63
2022/07/15 02:24:19;;;;;;;8.52;6.07;;;;;;;-141.48;100.00;69781.59;4968046;29;20030;-63
2022/07/15 02:26:49;;;;;;;14.32;7.07;;;;;;;-141.48;100.00;69781.59;4968193;29;20042;-63
2022/07/15 02:29:19;;;;;;;6.78;5.43;;;;;;;-141.48;100.00;69781.59;4967944;29;20027;-63
2022/07/15 02:31:50;;;;;;;9.63;5.63;;;;;;;-141.48;100.00;69781.59;4968226;29;20031;-63
2022/07/15 02:34:20;;;;;;;7.55;6.90;;;;;;;-141.48;100.00;69781.59;4967979;29;20026;-63
2022/07/15 02:36:51;;;;;;;5.80;5.35;;;;;;;-141.48;100.00;69781.59;4968282;29;20027;-63
2022/07/15 02:39:21;;;;;;;8.55;5.80;;;;;;;-141.48;100.00;69781.59;4967993;29;20038;-63
2022/07/15 02:41:51;;;;;;;8.07;6.05;;;;;;;-141.48;100.00;69781.59;4968072;29;20031;-64
2022/07/15 02:44:22;;;;;;;9.45;5.63;;;;;;;-141.48;100.00;69781.59;4968086;29;20383;-64
2022/07/15 02:46:52;;;;;;;7.45;6.18;;;;;;;-141.48;100.00;69781.59;4951709;29;20076;-66
2022/07/15 02:49:23;;;;;;;6.53;5.03;;;;;;;-141.48;100.00;69781.59;4968198;29;20027;-63
2022/07/15 02:51:53;;;;;;;6.18;5.00;;;;;;;-141.48;100.00;69781.59;4951969;29;20041;-63
2022/07/15 02:54:24;;;;;;;6.32;5.30;;;;;;;-141.48;100.00;69781.59;4968487;29;20030;-63
2022/07/15 02:56:54;;;;;;;6.28;5.45;;;;;;;-141.48;100.00;69781.59;4967839;29;20477;-68
2022/07/15 02:59:25;;;;;;;8.38;6.82;;;;;;;-141.48;100.00;69781.59;4951721;29;20449;-63
2022/07/15 03:01:55;;;;;;;9.77;6.50;;;;;;;-141.48;100.00;69781.59;4968077;29;20114;-62
2022/07/15 03:04:26;;;;;;;5.43;4.75;;;;;;;-141.48;100.00;69781.59;4967372;29;20111;-63
2022/07/15 03:06:56;;;;;;;6.80;6.07;;;;;;;-141.48;100.00;69781.59;4967935;29;20037;-63
2022/07/15 03:09:26;;;;;;;5.88;5.47;;;;;;;-141.48;100.00;69781.59;4967958;29;20027;-63
2022/07/15 03:11:57;;;;;;;6.30;5.70;;;;;;;-141.48;100.00;69781.59;4967568;29;20400;-63
2022/07/15 03:14:27;;;;;;;11.10;5.35;;;;;;;-141.48;100.00;69781.59;4967483;29;20460;-63
2022/07/15 03:16:58;;;;;;;6.05;5.75;;;;;;;-141.48;100.00;69781.59;4968056;29;20041;-63
2022/07/15 03:19:28;;;;;;;8.43;5.85;;;;;;;-141.48;100.00;69781.59;4968103;29;20091;-63
2022/07/15 03:21:59;;;;;;;6.88;5.57;;;;;;;-141.48;100.00;69781.59;4968262;29;20114;-63
2022/07/15 03:24:30;;;;;;;6.97;6.38;;;;;;;-141.48;100.00;69781.59;4967709;29;20039;-63
2022/07/15 03:27:00;;;;;;;12.38;7.40;;;;;;;-141.48;100.00;69781.59;4951580;29;20749;-63
2022/07/15 03:29:31;;;;;;;8.38;7.32;;;;;;;-141.48;100.00;69781.59;4967344;29;20030;-63
2022/07/15 03:32:02;;;;;;;9.65;6.35;;;;;;;-141.48;100.00;69781.59;4967671;29;20034;-63
2022/07/15 03:34:32;;;;;;;6.22;5.78;;;;;;;-141.48;100.00;69781.59;4967159;29;20038;-64
2022/07/15 03:37:03;;;;;;;8.10;7.30;;;;;;;-141.48;100.00;69781.59;4967381;29;20038;-63
2022/07/15 03:39:33;;;;;;;9.38;8.10;;;;;;;-141.48;100.00;69781.59;4950805;29;20159;-63
2022/07/15 03:42:03;;;;;;;8.48;7.60;;;;;;;-141.48;100.00;69781.59;4970048;29;20034;-63
2022/07/15 03:44:34;;;;;;;8.52;7.90;;;;;;;-141.48;100.00;69781.59;4954360;29;20079;-63
2022/07/15 03:47:04;;;;;;;9.90;8.88;;;;;;;-141.48;100.00;69781.59;4970839;29;20098;-63
2022/07/15 03:49:35;;;;;;;7.53;6.63;;;;;;;-141.48;100.00;69781.59;4971040;29;20045;-63
2022/07/15 03:52:05;;;;;;;8.90;8.18;;;;;;;-141.48;100.00;69781.59;4970570;29;20438;-63
2022/07/15 03:54:36;;;;;;;12.00;7.20;;;;;;;-141.48;100.00;69781.59;4970026;29;20031;-63
2022/07/15 03:57:06;;;;;;;14.02;10.20;;;;;;;-141.48;100.00;69781.59;4970522;29;20038;-63
2022/07/15 03:59:37;;;;;;;9.38;8.18;;;;;;;-141.48;100.00;69781.59;4970516;29;20023;-63
2022/07/15 04:02:07;;;;;;;8.98;7.68;;;;;;;-141.48;100.00;69781.59;4970535;29;20026;-63
2022/07/15 04:04:37;;;;;;;7.70;7.03;;;;;;;-141.48;100.00;69781.59;4969930;29;20163;-62
2022/07/15 04:07:08;;;;;;;9.93;8.00;;;;;;;-141.48;100.00;69781.59;4970024;29;20065;-63
2022/07/15 04:09:38;;;;;;;8.40;7.55;;;;;;;-141.48;100.00;69781.59;4970186;29;20438;-63
2022/07/15 04:12:10;;;;;;;10.15;8.20;;;;;;;-141.48;100.00;69781.59;4970627;29;20034;-63
2022/07/15 04:14:40;;;;;;;10.73;8.00;;;;;;;-141.48;100.00;69781.59;4970074;29;20035;-63
2022/07/15 04:17:11;;;;;;;13.38;6.93;;;;;;;-141.48;100.00;69781.59;4969920;29;20060;-63
2022/07/15 04:19:41;;;;;;;6.15;5.70;;;;;;;-141.48;100.00;69781.59;4970246;29;20064;-62
2022/07/15 04:22:11;;;;;;;7.95;6.65;;;;;;;-141.48;100.00;69781.59;4970583;29;20061;-62
2022/07/15 04:24:42;;;;;;;5.13;4.85;;;;;;;-141.48;100.00;69781.59;4969952;29;20407;-63
2022/07/15 04:27:12;;;;;;;7.30;6.60;;;;;;;-141.48;100.00;69781.59;4970134;29;20117;-63
2022/07/15 04:29:43;;;;;;;5.43;5.10;;;;;;;-141.48;100.00;69781.59;4970515;29;20058;-63
2022/07/15 04:32:13;;;;;;;5.72;5.30;;;;;;;-141.48;100.00;69781.59;4953893;29;20133;-63
2022/07/15 04:34:43;;;;;;;5.88;5.38;;;;;;;-141.48;100.00;69781.59;4969692;29;20023;-63
2022/07/15 04:37:14;;;;;;;9.02;6.45;;;;;;;-141.48;100.00;69781.59;4970096;29;20141;-63
2022/07/15 04:39:44;;;;;;;6.57;5.93;;;;;;;-141.48;100.00;69781.59;4969806;29;20046;-63
2022/07/15 04:42:15;;;;;;;5.95;4.78;;;;;;;-141.48;100.00;69781.59;4984876;24;20108;-67
2022/07/15 04:44:46;;;;;;;6.60;4.80;;;;;;;-141.48;100.00;69781.59;4955160;29;20026;-67
2022/07/15 04:47:17;;;;;;;10.45;4.82;;;;;;;-141.48;100.00;69781.59;4972225;29;20488;-66
2022/07/15 04:52:41;;;;;;;5.13;4.75;;;;;;;-141.48;100.00;69781.59;4971658;29;20062;-66
2022/07/15 04:55:13;;;;;;;6.30;5.75;;;;;;;-141.48;100.00;69781.59;4971675;29;20038;-68
2022/07/15 04:57:44;;;;;;;6.15;5.65;;;;;;;-141.48;100.00;69781.59;4971960;29;20061;-65
2022/07/15 05:00:14;;;;;;;8.27;5.78;;;;;;;-141.48;100.00;69781.59;4971832;29;20500;-68
2022/07/15 05:02:45;;;;;;;4.95;4.65;;;;;;;-141.48;100.00;69781.59;4971866;29;20038;-67
2022/07/15 05:05:15;;;;;;;4.68;4.45;;;;;;;-141.48;100.00;69781.59;4971504;29;20026;-67
2022/07/15 05:07:46;;;;;;;7.50;4.65;;;;;;;-141.48;100.00;69781.59;4971537;29;20110;-68
2022/07/15 05:10:16;;;;;;;5.10;4.57;;;;;;;-141.48;100.00;69781.59;4971291;29;20054;-65
2022/07/15 05:12:47;;;;;;;4.60;4.40;;;;;;;-141.48;100.00;69781.59;4971537;29;20034;-66
2022/07/15 05:15:17;;;;;;;7.50;6.30;;;;;;;-141.48;100.00;69781.59;4971210;29;20404;-66
2022/07/15 05:17:48;;;;;;;6.57;6.07;;;;;;;-141.48;100.00;69781.59;4971324;29;20097;-66
2022/07/15 05:20:18;;;;;;;7.72;5.40;;;;;;;-141.48;100.00;69781.59;4955281;29;20118;-65
2022/07/15 05:22:49;;;;;;;5.20;4.90;;;;;;;-141.48;100.00;69781.59;4971388;29;20450;-66
2022/07/15 05:25:19;;;;;;;7.63;5.97;;;;;;;-141.48;100.00;69781.59;4971077;29;20035;-65
2022/07/15 05:27:51;;;;;;;5.60;5.10;;;;;;;-141.48;100.00;69781.59;4954890;29;20034;-67
2022/07/15 05:30:21;;;;;;;6.45;5.72;;;;;;;-141.48;100.00;69781.59;4971448;29;20030;-65
2022/07/15 05:32:52;;;;;;;6.43;6.03;;;;;;;-141.48;100.00;69781.59;4971448;29;20031;-65
2022/07/15 05:35:22;;;;;;;6.60;4.55;;;;;;;-141.48;100.00;69781.59;4970908;29;20039;-68
2022/07/15 05:37:52;;;;;;;6.13;5.63;;;;;;;-141.48;100.00;69781.59;4954810;29;20029;-66
2022/07/15 05:40:23;;;;;;;5.80;5.13;;;;;;;-141.48;100.00;69781.59;4971586;29;20091;-66
2022/07/15 05:42:53;;;;;;;6.47;5.05;;;;;;;-141.48;100.00;69781.59;4971110;29;20057;-65
2022/07/15 05:45:24;;;;;;;8.55;5.53;;;;;;;-141.48;100.00;69781.59;4970529;29;20041;-65
2022/07/15 05:47:55;;;;;;;5.35;4.95;;;;;;;-141.48;100.00;69781.59;4970833;29;20054;-68
2022/07/15 05:50:25;;;;;;;19.50;7.50;;;;;;;-141.48;100.00;69781.59;4970809;29;20549;-66
2022/07/15 05:52:56;;;;;;;3.67;3.47;;;;;;;-141.48;100.00;69781.59;4970792;29;20062;-66
2022/07/15 05:55:27;;;;;;;4.07;3.88;;;;;;;-141.48;100.00;69781.59;4970638;29;20033;-66
2022/07/15 05:57:57;;;;;;;4.93;4.60;;;;;;;-141.48;100.00;69781.59;4970927;29;20130;-65
2022/07/15 06:00:28;;;;;;;5.20;4.90;;;;;;;-141.48;100.00;69781.59;4954492;29;20042;-67
2022/07/15 06:02:58;;;;;;;4.88;4.57;;;;;;;-141.48;100.00;69781.59;4970316;29;20118;-65
2022/07/15 06:05:29;;;;;;;14.10;4.93;;;;;;;-141.48;100.00;69781.59;4970345;29;20062;-65
2022/07/15 06:08:00;;;;;;;5.00;4.53;;;;;;;-141.48;100.00;69781.59;4970601;29;20034;-66
2022/07/15 06:10:30;;;;;;;5.10;4.80;;;;;;;-141.48;100.00;69781.59;4970656;29;20113;-67
2022/07/15 06:13:00;;;;;;;6.45;4.95;;;;;;;-141.48;100.00;69781.59;4970566;29;20037;-67
2022/07/15 06:15:31;;;;;;;5.10;4.80;;;;;;;-141.48;100.00;69781.59;4970126;29;20027;-66
2022/07/15 06:18:02;;;;;;;5.10;4.47;;;;;;;-141.48;100.00;69781.59;4970630;29;20548;-66
2022/07/15 06:20:33;;;;;;;4.00;3.03;;;;;;;-141.48;100.00;69781.59;4970703;29;20037;-67
2022/07/15 06:23:04;;;;;;;4.70;4.30;;;;;;;-141.48;100.00;69781.59;4970738;29;20046;-65
2022/07/15 06:25:34;;;;;;;8.20;5.22;;;;;;;-141.48;100.00;69781.59;4970250;29;20069;-66
2022/07/15 06:28:05;;;;;;;5.07;4.63;;;;;;;-141.48;100.00;69781.59;4970383;29;20126;-65
2022/07/15 06:30:35;;;;;;;6.95;4.75;;;;;;;-141.48;100.00;69781.59;4954283;29;20103;-65
2022/07/15 06:33:06;;;;;;;4.43;4.00;;;;;;;-141.48;100.00;69781.59;4970426;29;20034;-66
2022/07/15 06:35:36;;;;;;;8.25;4.28;;;;;;;-141.48;100.00;69781.59;4970144;29;20544;-65
2022/07/15 06:38:06;;;;;;;5.55;4.30;;;;;;;-141.48;100.00;69781.59;4970096;29;20035;-64
2022/07/15 06:40:37;;;;;;;4.25;4.05;;;;;;;-141.48;100.00;69781.59;4969724;29;20030;-64
2022/07/15 06:43:07;;;;;;;3.08;2.88;;;;;;;-141.48;100.00;69781.59;4970106;29;20108;-62
2022/07/15 06:45:38;;;;;;;4.30;3.88;;;;;;;-141.48;100.00;69781.59;4970029;29;20029;-64
2022/07/15 06:48:08;;;;;;;3.38;3.22;;;;;;;-141.48;100.00;69781.59;4970397;29;20088;-64
2022/07/15 06:50:38;;;;;;;3.58;3.35;;;;;;;-141.48;100.00;69781.59;4953824;29;20031;-64
2022/07/15 06:53:09;;;;;;;18.45;5.30;;;;;;;-141.48;100.00;69781.59;4970033;29;20037;-63
2022/07/15 06:55:39;;;;;;;3.65;3.42;;;;;;;-141.48;100.00;69781.59;4969794;29;20075;-64
2022/07/15 06:58:10;;;;;;;3.13;2.95;;;;;;;-141.48;100.00;69781.59;4970141;29;20340;-63
2022/07/15 07:00:40;;;;;;;8.32;3.50;;;;;;;-141.48;100.00;69781.59;4970036;29;20038;-61
2022/07/15 07:03:10;;;;;;;3.70;3.60;;;;;;;-141.48;100.00;69781.59;4969888;29;20027;-64
2022/07/15 07:05:41;;;;;;;3.42;3.33;;;;;;;-141.48;100.00;69781.59;4969609;29;20444;-64
2022/07/15 07:08:11;;;;;;;3.63;3.42;;;;;;;-141.48;100.00;69781.59;4969911;29;20035;-64
2022/07/15 07:10:42;;;;;;;3.35;3.08;;;;;;;-141.48;100.00;69781.59;4938824;29;20037;-64
2022/07/15 07:13:13;;;;;;;4.22;3.90;;;;;;;-141.48;100.00;69781.59;4969744;29;20022;-64
2022/07/15 07:15:43;;;;;;;2.92;2.83;;;;;;;-141.48;100.00;69781.59;4972064;29;20039;-63
2022/07/15 07:18:13;;;;;;;3.13;2.97;;;;;;;-141.48;100.00;69781.59;4973819;29;20092;-64
2022/07/15 07:20:44;;;;;;;3.22;3.03;;;;;;;-141.48;100.00;69781.59;4973488;29;20039;-64
2022/07/15 07:23:14;;;;;;;10.10;4.47;;;;;;;-141.48;100.00;69781.59;4973637;29;20095;-64
2022/07/15 07:25:45;;;;;;;8.70;3.85;;;;;;;-141.48;100.00;69781.59;4973286;29;20111;-64
2022/07/15 07:28:15;;;;;;;4.22;2.83;;;;;;;-141.48;100.00;69781.59;4973438;29;20027;-65
2022/07/15 07:30:46;;;;;;;3.35;2.92;;;;;;;-141.48;100.00;69781.59;4973365;29;20066;-67
2022/07/15 07:33:17;;;;;;;3.25;3.08;;;;;;;-141.48;100.00;69781.59;4973374;29;20404;-65
2022/07/15 07:35:47;;;;;;;3.25;2.65;;;;;;;-141.48;100.00;69781.59;4972786;29;20035;-64
2022/07/15 07:38:19;;;;;;;4.68;4.32;;;;;;;-141.48;100.00;69781.59;4973427;29;20038;-65
2022/07/15 07:40:50;;;;;;;5.38;4.32;;;;;;;-141.48;100.00;69781.59;4973047;29;20042;-65
2022/07/15 07:43:21;;;;;;;4.47;4.18;;;;;;;-141.48;100.00;69781.59;4973139;29;20044;-65
2022/07/15 07:45:51;;;;;;;4.18;3.90;;;;;;;-141.48;100.00;69781.59;4972972;29;20035;-65
2022/07/15 07:48:22;;;;;;;4.22;3.55;;;;;;;-141.48;100.00;69781.59;4957022;29;20108;-64
2022/07/15 07:50:53;;;;;;;3.72;3.53;;;;;;;-141.48;100.00;69781.59;4972964;29;20038;-64
2022/07/15 07:53:23;;;;;;;4.07;3.90;;;;;;;-141.48;100.00;69781.59;4972542;29;20030;-65
2022/07/15 07:55:53;;;;;;;3.47;3.28;;;;;;;-141.48;100.00;69781.59;4973093;29;20057;-64
2022/07/15 07:58:24;;;;;;;4.43;4.13;;;;;;;-141.48;100.00;69781.59;4973393;29;20092;-65
2022/07/15 08:00:55;;;;;;;3.45;3.17;;;;;;;-141.48;100.00;69781.59;4972952;29;20068;-65
2022/07/15 08:03:27;;;;;;;3.67;3.35;;;;;;;-141.48;100.00;69781.59;4972705;29;20031;-66
2022/07/15 08:05:58;;;;;;;5.03;4.13;;;;;;;-141.48;100.00;69781.59;4973211;29;20458;-65
2022/07/15 08:08:28;;;;;;;3.28;3.17;;;;;;;-141.48;100.00;69781.59;4972792;29;20031;-65
2022/07/15 08:10:59;;;;;;;3.28;3.05;;;;;;;-141.48;100.00;69781.59;4956810;29;20042;-65
2022/07/15 08:13:29;;;;;;;3.95;3.22;;;;;;;-141.48;100.00;69781.59;4972240;29;20442;-64
2022/07/15 08:16:00;;;;;;;4.60;3.80;;;;;;;-141.48;100.00;69781.59;4972679;29;20492;-64
2022/07/15 08:18:31;;;;;;;3.45;3.33;;;;;;;-141.48;100.00;69781.59;4972496;29;20514;-64
2022/07/15 08:21:03;;;;;;;3.30;3.17;;;;;;;-141.48;100.00;69781.59;4972863;29;20453;-65
2022/07/15 08:23:33;;;;;;;3.72;3.42;;;;;;;-141.48;100.00;69781.59;4972164;29;20106;-64
2022/07/15 08:26:04;;;;;;;2.90;2.70;;;;;;;-141.48;100.00;69781.59;4972116;29;20138;-64
2022/07/15 08:28:34;;;;;;;3.83;3.63;;;;;;;-141.48;100.00;69781.59;4972513;29;20127;-64
2022/07/15 08:31:05;;;;;;;3.80;3.47;;;;;;;-141.48;100.00;69781.59;4972621;29;20026;-65
2022/07/15 08:33:35;;;;;;;5.97;4.65;;;;;;;-141.48;100.00;69781.59;4972354;29;20041;-64
2022/07/15 08:36:06;;;;;;;2.30;2.25;;;;;;;-141.48;100.00;69781.59;4972518;29;20119;-65
2022/07/15 08:38:37;;;;;;;4.10;3.08;;;;;;;-141.48;100.00;69781.59;4972649;29;20484;-65
2022/07/15 08:41:08;;;;;;;3.50;3.35;;;;;;;-141.48;100.00;69781.59;4972011;29;20518;-64
2022/07/15 08:43:39;;;;;;;5.35;3.28;;;;;;;-141.48;100.00;69781.59;4972013;29;20031;-66
2022/07/15 08:46:10;;;;;;;3.05;2.95;;;;;;;-141.48;100.00;69781.59;4956080;29;20105;-64
2022/07/15 08:48:44;;;;;;;3.33;3.10;;;;;;;-141.48;100.00;69781.59;4972104;29;20536;-64
2022/07/15 08:51:15;;;;;;;2.55;2.45;;;;;;;-141.48;100.00;69781.59;4972183;29;20035;-65
2022/07/15 08:53:46;;;;;;;3.58;3.15;;;;;;;-141.48;100.00;69781.59;4971602;29;20031;-64
2022/07/15 08:56:19;;;;;;;3.55;3.03;;;;;;;-141.48;100.00;69781.59;4971893;29;20031;-64
2022/07/15 08:58:50;;;;;;;2.33;2.22;;;;;;;-141.48;100.00;69781.59;4971799;29;20023;-65
2022/07/15 09:01:20;;;;;;;2.90;2.70;;;;;;;-141.48;100.00;69781.59;4971997;29;20039;-64
2022/07/15 09:03:50;;;;;;;4.45;3.85;;;;;;;-141.48;100.00;69781.59;4955157;29;20480;-64
2022/07/15 09:06:43;;;;;;;3.83;2.92;;;;;;;-141.48;100.00;69781.59;4971777;29;20026;-64
2022/07/15 09:09:36;;;;;;;3.10;2.92;;;;;;;-141.48;100.00;69781.59;4971734;29;20081;-63
2022/07/15 09:12:09;;;;;;;9.77;3.15;;;;;;;-141.48;100.00;69781.59;4971705;29;20042;-63
2022/07/15 09:14:42;;;;;;;3.60;3.17;;;;;;;-141.48;100.00;69781.59;4971040;29;20034;-64
2022/07/15 09:17:13;;;;;;;3.65;3.45;;;;;;;-141.48;100.00;69781.59;4955098;29;20083;-64
2022/07/15 09:19:57;;;;;;;6.32;2.95;;;;;;;-141.48;100.00;69781.59;4971606;29;20034;-64
2022/07/15 09:22:30;;;;;;;3.17;2.97;;;;;;;-141.48;100.00;69781.59;4955288;29;20027;-64
2022/07/15 09:25:09;;;;;;;4.63;2.72;;;;;;;-141.48;100.00;69781.59;4970729;29;20055;-63
2022/07/15 09:27:42;;;;;;;3.10;2.88;;;;;;;-141.48;100.00;69781.59;4971486;29;20105;-64
2022/07/15 09:36:18;;;;;;;2.38;2.28;;;;;;;-141.48;100.00;69781.59;4972018;29;20175;-63
2022/07/15 09:39:01;;;;;;;2.15;2.15;;;;;;;-141.48;100.00;69781.59;4970825;29;20059;-63
2022/07/15 09:41:37;;;;;;;2.95;2.80;;;;;;;-141.48;100.00;69781.59;4971110;29;20062;-63
2022/07/15 09:44:22;;;;;;;2.33;2.33;;;;;;;-141.48;100.00;69781.59;4971221;29;20382;-64
2022/07/15 09:46:54;;;;;;;2.40;2.20;;;;;;;-141.48;100.00;69781.59;4970934;29;20109;-63
2022/07/15 09:49:24;;;;;;;3.15;2.92;;;;;;;-141.48;100.00;69781.59;4970900;29;20035;-63
2022/07/15 09:52:14;;;;;;;4.05;2.60;;;;;;;-141.48;100.00;69781.59;4970912;29;20409;-65
2022/07/15 09:54:48;;;;;;;2.22;2.13;;;;;;;-141.48;100.00;69781.59;4970793;29;20045;-64
2022/07/15 09:57:20;;;;;;;2.55;2.42;;;;;;;-141.48;100.00;69781.59;4970857;29;20030;-64
2022/07/15 09:59:51;;;;;;;2.83;2.63;;;;;;;-141.48;100.00;69781.59;4954461;29;20027;-63
2022/07/15 10:02:22;;;;;;;3.50;2.47;;;;;;;-141.48;100.00;69781.59;4970566;29;20046;-64
2022/07/15 10:04:55;;;;;;;2.65;2.55;;;;;;;-141.48;100.00;69781.59;4954453;29;20424;-62
2022/07/15 10:07:26;;;;;;;2.90;2.65;;;;;;;-141.48;100.00;69781.59;4970683;29;20119;-63
2022/07/15 10:10:00;;;;;;;1.90;1.90;;;;;;;-141.48;100.00;69781.59;4970528;29;20080;-60
2022/07/15 10:12:45;;;;;;;2.15;2.10;;;;;;;-141.48;100.00;69781.59;4970752;29;20027;-62
2022/07/15 10:15:41;;;;;;;6.30;2.53;;;;;;;-141.48;100.00;69781.59;4970323;29;20068;-63
2022/07/15 10:18:19;;;;;;;3.35;1.98;;;;;;;-141.48;100.00;69781.59;4970997;29;20114;-61
2022/07/15 10:21:09;;;;;;;1.77;1.77;;;;;;;-141.48;100.00;69781.59;4970648;29;20061;-63
2022/07/15 10:23:58;;;;;;;2.15;2.05;;;;;;;-141.48;100.00;69781.59;4933164;29;20103;-63
2022/07/15 10:26:47;;;;;;;1.92;1.90;;;;;;;-141.48;100.00;69781.59;4970853;29;20038;-63
2022/07/15 10:29:17;;;;;;;3.70;2.70;;;;;;;-141.48;100.00;69781.59;4970941;29;20039;-64
2022/07/15 10:31:57;;;;;;;1.73;1.50;;;;;;;-141.48;100.00;69781.59;4970042;29;20167;-63
2022/07/15 10:34:35;;;;;;;1.90;1.80;;;;;;;-141.48;100.00;69781.59;4970073;29;20035;-63
2022/07/15 10:37:10;;;;;;;2.20;2.13;;;;;;;-141.48;100.00;69781.59;4953779;29;20030;-62
2022/07/15 10:39:48;;;;;;;1.60;1.60;;;;;;;-141.48;100.00;69781.59;4970315;29;20023;-63
2022/07/15 10:42:20;;;;;;;3.20;2.55;;;;;;;-141.48;100.00;69781.59;4984588;24;20115;-64
2022/07/15 10:45:02;;;;;;;2.22;1.98;;;;;;;-141.48;100.00;69781.59;4971461;29;20134;-65
2022/07/15 10:47:33;;;;;;;2.13;2.03;;;;;;;-141.48;100.00;69781.59;4971309;29;20091;-66
2022/07/15 10:50:37;;;;;;;2.33;2.22;;;;;;;-141.48;100.00;69781.59;4954942;29;20027;-64
2022/07/15 10:53:15;;;;;;;2.40;2.30;;;;;;;-141.48;100.00;69781.59;4971483;29;20034;-63
2022/07/15 10:55:46;;;;;;;1.98;1.88;;;;;;;-141.48;100.00;69781.59;4954934;29;20517;-65
2022/07/15 10:58:17;;;;;;;1.48;1.48;;;;;;;-141.48;100.00;69781.59;4971719;29;20031;-64
2022/07/15 11:00:47;;;;;;;2.10;2.00;;;;;;;-141.48;100.00;69781.59;4971992;29;20039;-64
2022/07/15 11:03:19;;;;;;;2.00;1.90;;;;;;;-141.48;100.00;69781.59;4970815;29;20033;-65
2022/07/15 11:05:58;;;;;;;2.63;2.53;;;;;;;-141.48;100.00;69781.59;4970654;29;20114;-66
2022/07/15 11:08:31;;;;;;;1.60;1.60;;;;;;;-141.48;100.00;69781.59;4971257;29;20087;-64
2022/07/15 11:11:14;;;;;;;2.47;2.25;;;;;;;-141.48;100.00;69781.59;4970907;29;20407;-65
2022/07/15 11:13:47;;;;;;;1.60;1.60;;;;;;;-141.48;100.00;69781.59;4970106;29;20106;-63
2022/07/15 11:16:20;;;;;;;1.77;1.73;;;;;;;-141.48;100.00;69781.59;4970283;29;20507;-64
2022/07/15 11:18:54;;;;;;;3.08;2.88;;;;;;;-141.48;100.00;69781.59;4970447;29;20112;-65
2022/07/15 11:21:25;;;;;;;1.52;1.52;;;;;;;-141.48;100.00;69781.59;4970082;29;20035;-65
2022/07/15 11:23:59;;;;;;;1.75;1.75;;;;;;;-141.48;100.00;69781.59;4953927;29;20113;-64
2022/07/15 11:26:46;;;;;;;4.70;2.13;;;;;;;-141.48;100.00;69781.59;4953971;29;20039;-63
2022/07/15 11:29:16;;;;;;;1.92;1.85;;;;;;;-141.48;100.00;69781.59;4953972;29;20030;-63
2022/07/15 11:31:48;;;;;;;1.73;1.73;;;;;;;-141.48;100.00;69781.59;4970778;29;20101;-64
2022/07/15 11:34:20;;;;;;;1.85;1.75;;;;;;;-141.48;100.00;69781.59;4970104;29;20066;-64
2022/07/15 11:36:58;;;;;;;1.75;1.75;;;;;;;-141.48;100.00;69781.59;4970713;29;20043;-64
2022/07/15 11:39:29;;;;;;;3.50;1.80;;;;;;;-141.48;100.00;69781.59;4970786;29;20469;-63
2022/07/15 11:44:49;;;;;;;2.50;2.40;;;;;;;-141.48;100.00;69781.59;4970832;29;20034;-64